»·PEaware :: N520YK KGEG-KGJT

N520YK :: KGEG-KGJT

FLIGHT INFORMATION

Flight Status: Arrived
Operator: Privately registered:
United States
More flights under this callsign
Pilot: Chuck O. (4337)
Aircraft: BEECH AIRCRAFT SUPER KING AIR COMMUTER
(BE20)
More flights by this aircraft type
Origin: KGEG Spokane Intl
United States
Destination: KGJT Walker
United States
More flights between these airports :: More routes between these airports
Route: DOXIE J52 LKT JNC
File this flight plan on PilotEdge
Remarks: GEG3
Altitude:
(Current/Filed)
260ft
Speed:
(Current/Filed)
300kts
Departed: 01-Jan-18 06:48 PM
Arrived: 01-Jan-18 08:56 PM
Distance/Time
Traveled:
642nm/2:08
Distance/Time
To Go:
Arrived

Flight Plot

Page will automatically refresh every two minutes.

Flight plan parsing failed; only flown route is shown


Map Options




Map Legend


Flown Route
Filed Route
Departure Airport
Arrival Airport
Navaid (VOR, NDB)
Fix

Horizontal Profiles

Position Reports

Time Latitude Longitude Heading Altitude Ground
Speed
01-Jan-18 18:43 47.627107 -117.519575 341 2354ft 0kts
01-Jan-18 18:44 47.627110 -117.519577 341 2354ft 0kts
01-Jan-18 18:45 47.627112 -117.519578 341 2354ft 0kts
01-Jan-18 18:46 47.627115 -117.519579 341 2354ft 0kts
01-Jan-18 18:47 47.627117 -117.519580 341 2354ft 0kts
01-Jan-18 18:48 47.627119 -117.519582 341 2354ft 0kts
01-Jan-18 18:49 47.627122 -117.519583 341 2354ft 0kts
01-Jan-18 18:50 47.629736 -117.517143 40 2354ft 15kts
01-Jan-18 18:51 47.630698 -117.517552 307 2354ft 0kts
01-Jan-18 18:52 47.630726 -117.517601 310 2354ft 3kts
01-Jan-18 18:53 47.630590 -117.519185 223 2354ft 32kts
01-Jan-18 18:54 47.605435 -117.555029 221 3264ft 160kts
01-Jan-18 18:55 47.570894 -117.597329 218 5364ft 166kts
01-Jan-18 18:56 47.533975 -117.641329 220 7327ft 173kts
01-Jan-18 18:57 47.494060 -117.685661 219 9255ft 183kts
01-Jan-18 18:58 47.450363 -117.662841 123 11004ft 200kts
01-Jan-18 18:59 47.417703 -117.593383 121 12605ft 213kts
01-Jan-18 19:00 47.379829 -117.523433 131 14284ft 221kts
01-Jan-18 19:01 47.337139 -117.457425 131 16232ft 226kts
01-Jan-18 19:02 47.293610 -117.388711 130 18033ft 232kts
01-Jan-18 19:03 47.250329 -117.320009 130 19972ft 230kts
01-Jan-18 19:04 47.205964 -117.249676 131 21711ft 239kts
01-Jan-18 19:05 47.160182 -117.177416 131 23603ft 242kts
01-Jan-18 19:06 47.113035 -117.103078 132 25233ft 254kts
01-Jan-18 19:07 47.063596 -117.025367 132 26530ft 276kts
01-Jan-18 19:08 47.006530 -116.936235 132 26599ft 317kts
01-Jan-18 19:09 46.944549 -116.839797 132 26592ft 331kts
01-Jan-18 19:10 46.880848 -116.740897 132 26573ft 336kts
01-Jan-18 19:11 46.816278 -116.640940 132 26566ft 338kts
01-Jan-18 19:12 46.751771 -116.541394 132 26566ft 338kts
01-Jan-18 19:13 46.687095 -116.441945 132 26589ft 337kts
01-Jan-18 19:14 46.622440 -116.342881 132 26584ft 338kts
01-Jan-18 19:15 46.557667 -116.243997 133 26577ft 338kts
01-Jan-18 19:16 46.492555 -116.144979 132 26568ft 338kts
01-Jan-18 19:17 46.427516 -116.046412 133 26574ft 338kts
01-Jan-18 19:18 46.362126 -115.947698 132 26586ft 339kts
01-Jan-18 19:19 46.296770 -115.849374 133 26604ft 340kts
01-Jan-18 19:20 46.231203 -115.751086 133 26621ft 340kts
01-Jan-18 19:21 46.165227 -115.652555 133 26637ft 340kts
01-Jan-18 19:22 46.099364 -115.554552 133 26639ft 341kts
01-Jan-18 19:23 46.033113 -115.456320 133 26630ft 341kts
01-Jan-18 19:24 45.966789 -115.358516 133 26618ft 342kts
01-Jan-18 19:25 45.900217 -115.260932 133 26619ft 342kts
01-Jan-18 19:26 45.833130 -115.163182 134 26607ft 343kts
01-Jan-18 19:27 45.763892 -115.068587 135 26594ft 345kts
01-Jan-18 19:28 45.693991 -114.974553 135 26582ft 346kts
01-Jan-18 19:29 45.623674 -114.880137 135 26571ft 346kts
01-Jan-18 19:30 45.553425 -114.786029 135 26571ft 347kts
01-Jan-18 19:31 45.482736 -114.691623 135 26561ft 348kts
01-Jan-18 19:32 45.412099 -114.597608 135 26553ft 348kts
01-Jan-18 19:33 45.341312 -114.503726 135 26546ft 348kts
01-Jan-18 19:34 45.270080 -114.409588 135 26542ft 349kts
01-Jan-18 19:35 45.198996 -114.315966 135 26540ft 349kts
01-Jan-18 19:36 45.127702 -114.222777 135 26532ft 349kts
01-Jan-18 19:37 45.056138 -114.129468 136 26529ft 348kts
01-Jan-18 19:38 44.981621 -114.042167 144 26529ft 349kts
01-Jan-18 19:39 44.902068 -113.963660 144 26521ft 351kts
01-Jan-18 19:40 44.821487 -113.884746 144 26507ft 352kts
01-Jan-18 19:41 44.741091 -113.805765 144 26486ft 353kts
01-Jan-18 19:42 44.660482 -113.726596 144 26475ft 352kts
01-Jan-18 19:43 44.580163 -113.647894 144 26469ft 352kts
01-Jan-18 19:44 44.499882 -113.569450 144 26455ft 352kts
01-Jan-18 19:45 44.419156 -113.490815 145 26430ft 352kts
01-Jan-18 19:46 44.338717 -113.412741 145 26428ft 352kts
01-Jan-18 19:47 44.257890 -113.334558 145 26427ft 353kts
01-Jan-18 19:48 44.177149 -113.256716 145 26426ft 353kts
01-Jan-18 19:49 44.096136 -113.178873 145 26425ft 354kts
01-Jan-18 19:50 44.014612 -113.100799 145 26425ft 355kts
01-Jan-18 19:51 43.933191 -113.023065 145 26426ft 355kts
01-Jan-18 19:52 43.855050 -112.948753 145 26427ft 355kts
01-Jan-18 19:53 43.773096 -112.871063 145 26431ft 356kts
01-Jan-18 19:54 43.691151 -112.793642 145 26432ft 357kts
01-Jan-18 19:55 43.608633 -112.715939 145 26437ft 358kts
01-Jan-18 19:56 43.526149 -112.638529 146 26437ft 359kts
01-Jan-18 19:57 43.443472 -112.561203 146 26437ft 360kts
01-Jan-18 19:58 43.360343 -112.483713 146 26436ft 360kts
01-Jan-18 19:59 43.277467 -112.406728 146 26436ft 360kts
01-Jan-18 20:00 43.194609 -112.330006 146 26436ft 359kts
01-Jan-18 20:01 43.111622 -112.253419 146 26436ft 358kts
01-Jan-18 20:02 43.028974 -112.177404 146 26435ft 358kts
01-Jan-18 20:03 42.946270 -112.101584 146 26433ft 357kts
01-Jan-18 20:04 42.864009 -112.026406 146 26433ft 356kts
01-Jan-18 20:05 42.781673 -111.951422 146 26436ft 357kts
01-Jan-18 20:06 42.698737 -111.876127 146 26428ft 358kts
01-Jan-18 20:07 42.615937 -111.801195 147 26407ft 357kts
01-Jan-18 20:08 42.533034 -111.726426 147 26402ft 356kts
01-Jan-18 20:09 42.450604 -111.652326 147 26399ft 355kts
01-Jan-18 20:10 42.368250 -111.578534 147 26398ft 355kts
01-Jan-18 20:11 42.285571 -111.504678 147 26398ft 355kts
01-Jan-18 20:12 42.203187 -111.431316 147 26412ft 355kts
01-Jan-18 20:13 42.120469 -111.357884 147 26415ft 355kts
01-Jan-18 20:14 42.037883 -111.284814 147 26414ft 356kts
01-Jan-18 20:15 41.955232 -111.211911 148 26413ft 354kts
01-Jan-18 20:16 41.886436 -111.151409 148 26409ft 353kts
01-Jan-18 20:17 41.790517 -111.067327 148 26403ft 353kts
01-Jan-18 20:18 41.722056 -111.007480 148 26394ft 353kts
01-Jan-18 20:19 41.625736 -110.923564 148 26383ft 354kts
01-Jan-18 20:20 41.543235 -110.851927 148 26378ft 354kts
01-Jan-18 20:21 41.474493 -110.792403 148 26377ft 354kts
01-Jan-18 20:22 41.377899 -110.709015 148 26377ft 354kts
01-Jan-18 20:23 41.309131 -110.649836 149 26377ft 353kts
01-Jan-18 20:24 41.226235 -110.578699 149 26377ft 354kts
01-Jan-18 20:25 41.143601 -110.508003 149 26376ft 354kts
01-Jan-18 20:26 41.061021 -110.437567 149 26370ft 353kts
01-Jan-18 20:27 40.978187 -110.367115 149 26359ft 353kts
01-Jan-18 20:28 40.895639 -110.297142 149 26349ft 352kts
01-Jan-18 20:29 40.812957 -110.227240 149 26340ft 352kts
01-Jan-18 20:30 40.730692 -110.157916 149 26332ft 351kts
01-Jan-18 20:31 40.648488 -110.088836 149 26325ft 350kts
01-Jan-18 20:32 40.566140 -110.019861 149 26320ft 349kts
01-Jan-18 20:33 40.484181 -109.951380 150 26316ft 349kts
01-Jan-18 20:34 40.402201 -109.883115 150 26314ft 349kts
01-Jan-18 20:35 40.320034 -109.814886 150 26313ft 348kts
01-Jan-18 20:36 40.238197 -109.747126 150 26312ft 348kts
01-Jan-18 20:37 40.156190 -109.679413 150 26312ft 348kts
01-Jan-18 20:38 40.074490 -109.612154 150 26313ft 348kts
01-Jan-18 20:39 39.992525 -109.544871 150 26314ft 348kts
01-Jan-18 20:40 39.910471 -109.477716 150 26311ft 347kts
01-Jan-18 20:41 39.828741 -109.410990 150 26310ft 347kts
01-Jan-18 20:42 39.746907 -109.344454 149 26309ft 347kts
01-Jan-18 20:43 39.665310 -109.278032 149 25577ft 345kts
01-Jan-18 20:44 39.584911 -109.212689 149 24577ft 337kts
01-Jan-18 20:45 39.505998 -109.148914 150 23542ft 327kts
01-Jan-18 20:46 39.429322 -109.087424 150 22070ft 322kts
01-Jan-18 20:47 39.353606 -109.026750 150 20573ft 318kts
01-Jan-18 20:48 39.278680 -108.966740 149 19071ft 314kts
01-Jan-18 20:49 39.204973 -108.907936 150 17603ft 308kts
01-Jan-18 20:50 39.134574 -108.851979 149 16699ft 291kts
01-Jan-18 20:51 39.065708 -108.796346 140 15432ft 290kts
01-Jan-18 20:52 39.028988 -108.709005 107 14522ft 276kts
01-Jan-18 20:53 39.001578 -108.617337 109 13590ft 268kts
01-Jan-18 20:54 38.973759 -108.530866 110 12985ft 257kts
01-Jan-18 20:55 38.946202 -108.447136 111 12385ft 252kts
01-Jan-18 20:56 38.946579 -108.369615 47 11848ft 190kts
01-Jan-18 20:57 38.986400 -108.337393 347 10280ft 171kts
01-Jan-18 20:58 39.026312 -108.372272 310 8161ft 180kts
01-Jan-18 20:59 39.057557 -108.420039 308 6760ft 162kts
01-Jan-18 21:00 39.086346 -108.463838 307 5903ft 158kts
01-Jan-18 21:01 39.111950 -108.502845 309 5129ft 131kts
01-Jan-18 21:02 39.123870 -108.525049 226 4862ft 11kts
01-Jan-18 21:03 39.123472 -108.525834 277 4862ft 0kts
01-Jan-18 21:04 39.123911 -108.528333 270 4862ft 13kts
01-Jan-18 21:05 39.125589 -108.531995 346 4862ft 10kts

Navigation Log

Ident Type
Flight plan parsing failed, navigation log unavailable